createdAt,value
2023-05-22T00:00:00.728Z,18.42
2023-05-22T00:00:13.516Z,18.41
2023-05-22T00:00:26.659Z,18.40
2023-05-22T00:00:38.837Z,18.41
2023-05-22T00:00:52.745Z,18.41
2023-05-22T00:01:06.780Z,18.41
2023-05-22T00:01:20.085Z,18.41
2023-05-22T00:01:37.257Z,18.41
2023-05-22T00:01:49.311Z,18.41
2023-05-22T00:02:01.165Z,18.41
2023-05-22T00:02:12.932Z,18.41
2023-05-22T00:02:24.769Z,18.42
2023-05-22T00:02:38.680Z,18.43
2023-05-22T00:02:52.499Z,18.43
2023-05-22T00:03:05.165Z,18.45
2023-05-22T00:03:16.961Z,18.43
2023-05-22T00:03:29.531Z,18.43
2023-05-22T00:03:41.235Z,18.43
2023-05-22T00:03:53.152Z,18.41
2023-05-22T00:04:05.025Z,18.41
2023-05-22T00:04:21.083Z,18.39
2023-05-22T00:04:32.762Z,18.38
2023-05-22T00:04:44.497Z,18.37
2023-05-22T00:04:58.641Z,18.37
2023-05-22T00:05:11.179Z,18.37
2023-05-22T00:05:22.934Z,18.38
2023-05-22T00:05:38.738Z,18.38
2023-05-22T00:05:50.457Z,18.38
2023-05-22T00:06:03.105Z,18.39
2023-05-22T00:06:15.005Z,18.38
2023-05-22T00:06:27.511Z,18.39
2023-05-22T00:06:42.503Z,18.39
2023-05-22T00:06:55.071Z,18.39
2023-05-22T00:07:07.100Z,18.39
2023-05-22T00:07:18.792Z,18.38
2023-05-22T00:07:30.588Z,18.37
2023-05-22T00:07:43.730Z,18.37
2023-05-22T00:07:55.474Z,18.38
2023-05-22T00:08:11.649Z,18.37
2023-05-22T00:08:23.294Z,18.38
2023-05-22T00:08:34.913Z,18.37
2023-05-22T00:08:46.553Z,18.38
2023-05-22T00:08:58.218Z,18.39
2023-05-22T00:09:09.988Z,18.38
2023-05-22T00:09:22.886Z,18.39
2023-05-22T00:09:34.566Z,18.39
2023-05-22T00:09:46.582Z,18.38
2023-05-22T00:09:58.426Z,18.39
2023-05-22T00:10:10.887Z,18.38
2023-05-22T00:10:22.672Z,18.38
2023-05-22T00:10:34.366Z,18.38
2023-05-22T00:10:45.988Z,18.38
2023-05-22T00:10:58.609Z,18.37
2023-05-22T00:11:10.648Z,18.37
2023-05-22T00:11:22.366Z,18.37
2023-05-22T00:11:34.856Z,18.37
2023-05-22T00:11:46.876Z,18.37
2023-05-22T00:11:58.663Z,18.35
2023-05-22T00:12:11.316Z,18.36
2023-05-22T00:12:23.012Z,18.35
2023-05-22T00:12:34.916Z,18.36
2023-05-22T00:12:46.570Z,18.36
2023-05-22T00:12:58.241Z,18.36
2023-05-22T00:13:09.935Z,18.36
2023-05-22T00:13:21.666Z,18.36
2023-05-22T00:13:33.659Z,18.36
2023-05-22T00:13:45.339Z,18.36
2023-05-22T00:13:58.002Z,18.36
2023-05-22T00:14:09.637Z,18.35
2023-05-22T00:14:21.325Z,18.35
2023-05-22T00:14:32.980Z,18.35
2023-05-22T00:14:44.624Z,18.36
2023-05-22T00:14:56.236Z,18.36
2023-05-22T00:15:08.890Z,18.35
2023-05-22T00:15:20.515Z,18.34
2023-05-22T00:15:33.934Z,18.32
2023-05-22T00:15:45.570Z,18.32
2023-05-22T00:15:57.247Z,18.32
2023-05-22T00:16:09.248Z,18.32
2023-05-22T00:16:21.016Z,18.31
2023-05-22T00:16:34.284Z,18.31
2023-05-22T00:16:46.322Z,18.31
2023-05-22T00:17:00.169Z,18.32
2023-05-22T00:17:15.025Z,18.32
2023-05-22T00:17:26.893Z,18.32
2023-05-22T00:17:38.715Z,18.31
2023-05-22T00:17:50.496Z,18.31
2023-05-22T00:18:02.223Z,18.30
2023-05-22T00:18:13.971Z,18.31
2023-05-22T00:18:27.044Z,18.30
2023-05-22T00:18:42.365Z,18.29
2023-05-22T00:18:55.586Z,18.29
2023-05-22T00:19:13.089Z,18.28
2023-05-22T00:19:24.919Z,18.28
2023-05-22T00:19:36.872Z,18.29
2023-05-22T00:19:48.628Z,18.29
2023-05-22T00:20:07.099Z,18.28
2023-05-22T00:20:19.973Z,18.29
2023-05-22T00:20:31.624Z,18.28
2023-05-22T00:20:46.317Z,18.28
2023-05-22T00:20:58.074Z,18.28
2023-05-22T00:21:10.058Z,18.26
2023-05-22T00:21:21.988Z,18.26
2023-05-22T00:21:34.701Z,18.23
2023-05-22T00:21:46.929Z,18.25
2023-05-22T00:21:59.851Z,18.24
2023-05-22T00:22:11.603Z,18.24
2023-05-22T00:22:23.239Z,18.23
2023-05-22T00:22:35.508Z,18.23
2023-05-22T00:22:48.792Z,18.22
2023-05-22T00:23:01.236Z,18.22
2023-05-22T00:23:15.196Z,18.22
2023-05-22T00:23:29.935Z,18.21
2023-05-22T00:23:42.863Z,18.22
2023-05-22T00:23:54.570Z,18.22
2023-05-22T00:24:06.974Z,18.22
2023-05-22T00:24:18.618Z,18.21
2023-05-22T00:24:30.376Z,18.20
2023-05-22T00:24:42.056Z,18.20
2023-05-22T00:24:54.658Z,18.20
2023-05-22T00:25:08.011Z,18.19
2023-05-22T00:25:19.975Z,18.20
2023-05-22T00:25:32.039Z,18.20
2023-05-22T00:25:44.247Z,18.20
2023-05-22T00:25:55.923Z,18.20
2023-05-22T00:26:08.527Z,18.21
2023-05-22T00:26:22.228Z,18.20
2023-05-22T00:26:33.945Z,18.19
2023-05-22T00:26:45.933Z,18.20
2023-05-22T00:26:57.624Z,18.19
2023-05-22T00:27:09.334Z,18.19
2023-05-22T00:27:20.964Z,18.17
2023-05-22T00:27:32.861Z,18.18
2023-05-22T00:27:45.507Z,18.17
2023-05-22T00:27:57.398Z,18.17
2023-05-22T00:28:09.270Z,18.17
2023-05-22T00:28:21.603Z,18.16
2023-05-22T00:28:33.215Z,18.16
2023-05-22T00:28:44.921Z,18.15
2023-05-22T00:28:56.588Z,18.15
2023-05-22T00:29:08.409Z,18.15
2023-05-22T00:29:21.101Z,18.15
2023-05-22T00:29:32.820Z,18.16
2023-05-22T00:29:44.500Z,18.16
2023-05-22T00:29:56.281Z,18.16
2023-05-22T00:30:08.901Z,18.16
2023-05-22T00:30:20.604Z,18.15
2023-05-22T00:30:33.229Z,18.14
2023-05-22T00:30:44.989Z,18.15
2023-05-22T00:30:57.654Z,18.15
2023-05-22T00:31:09.354Z,18.14
2023-05-22T00:31:21.156Z,18.14
2023-05-22T00:31:34.198Z,18.14
2023-05-22T00:31:45.958Z,18.14
2023-05-22T00:31:57.569Z,18.13
2023-05-22T00:32:09.247Z,18.13
2023-05-22T00:32:20.961Z,18.12
2023-05-22T00:32:32.615Z,18.13
2023-05-22T00:32:45.246Z,18.13
2023-05-22T00:32:57.104Z,18.13
2023-05-22T00:33:08.775Z,18.12
2023-05-22T00:33:20.790Z,18.12
2023-05-22T00:33:34.205Z,18.13
2023-05-22T00:33:46.366Z,18.13
2023-05-22T00:33:58.423Z,18.13
2023-05-22T00:34:10.205Z,18.14
2023-05-22T00:34:21.936Z,18.13
2023-05-22T00:34:34.708Z,18.15
2023-05-22T00:34:46.464Z,18.16
2023-05-22T00:34:58.358Z,18.15
2023-05-22T00:35:10.369Z,18.13
2023-05-22T00:35:22.109Z,18.12
2023-05-22T00:35:33.817Z,18.11
2023-05-22T00:35:45.545Z,18.10
2023-05-22T00:35:57.216Z,18.10
2023-05-22T00:36:10.333Z,18.10
2023-05-22T00:36:21.985Z,18.10
2023-05-22T00:36:33.745Z,18.10
2023-05-22T00:36:45.487Z,18.11
2023-05-22T00:36:57.489Z,18.10
2023-05-22T00:37:09.158Z,18.10
2023-05-22T00:37:20.866Z,18.10
2023-05-22T00:37:32.577Z,18.12
2023-05-22T00:37:45.010Z,18.13
2023-05-22T00:37:57.884Z,18.12
2023-05-22T00:38:09.498Z,18.13
2023-05-22T00:38:29.356Z,18.12
2023-05-22T00:38:41.028Z,18.11
2023-05-22T00:38:53.200Z,18.11
2023-05-22T00:39:06.173Z,18.11
2023-05-22T00:39:17.811Z,18.11
2023-05-22T00:39:29.531Z,18.10
2023-05-22T00:39:41.244Z,18.08
2023-05-22T00:39:52.936Z,18.07
2023-05-22T00:40:06.013Z,18.07
2023-05-22T00:40:17.840Z,18.08
2023-05-22T00:40:29.472Z,18.08
2023-05-22T00:40:42.173Z,18.06
2023-05-22T00:40:53.815Z,18.06
2023-05-22T00:41:06.006Z,18.05
2023-05-22T00:41:17.849Z,18.05
2023-05-22T00:41:29.598Z,18.05
2023-05-22T00:41:41.246Z,18.04
2023-05-22T00:41:52.906Z,18.02
2023-05-22T00:42:04.980Z,18.03
2023-05-22T00:42:17.925Z,18.02
2023-05-22T00:42:29.635Z,18.03
2023-05-22T00:42:41.711Z,18.03
2023-05-22T00:42:53.839Z,18.03
2023-05-22T00:43:08.275Z,18.02
2023-05-22T00:43:21.516Z,18.01
2023-05-22T00:43:33.607Z,18.01
2023-05-22T00:43:46.279Z,18.00
2023-05-22T00:43:57.918Z,17.98
2023-05-22T00:44:10.210Z,17.98
2023-05-22T00:44:23.008Z,17.97
2023-05-22T00:44:34.697Z,17.96
2023-05-22T00:44:46.397Z,17.95
2023-05-22T00:44:58.068Z,17.95
2023-05-22T00:45:10.851Z,17.94
2023-05-22T00:45:23.456Z,17.94
2023-05-22T00:45:36.453Z,17.94
2023-05-22T00:45:48.266Z,17.93
2023-05-22T00:46:00.098Z,17.92
2023-05-22T00:46:12.588Z,17.90
2023-05-22T00:46:24.430Z,17.92
2023-05-22T00:46:38.107Z,17.91
2023-05-22T00:46:51.101Z,17.92
2023-05-22T00:47:03.738Z,17.91
2023-05-22T00:47:15.582Z,17.90
2023-05-22T00:47:27.329Z,17.89
2023-05-22T00:47:40.799Z,17.90
2023-05-22T00:47:52.458Z,17.90
2023-05-22T00:48:04.501Z,17.90
2023-05-22T00:48:16.282Z,17.89
2023-05-22T00:48:27.954Z,17.88
2023-05-22T00:48:39.671Z,17.89
2023-05-22T00:48:52.829Z,17.88
2023-05-22T00:49:04.651Z,17.88
2023-05-22T00:49:16.276Z,17.88
2023-05-22T00:49:27.909Z,17.88
2023-05-22T00:49:39.578Z,17.89
2023-05-22T00:49:51.233Z,17.89
2023-05-22T00:50:03.266Z,17.89
2023-05-22T00:50:15.935Z,17.90
2023-05-22T00:50:30.112Z,17.90
2023-05-22T00:50:41.873Z,17.89
2023-05-22T00:50:55.145Z,17.89
2023-05-22T00:51:07.256Z,17.88
2023-05-22T00:51:20.684Z,17.89
2023-05-22T00:51:32.478Z,17.88
2023-05-22T00:51:45.484Z,17.87
2023-05-22T00:51:57.282Z,17.88
2023-05-22T00:52:09.454Z,17.89
2023-05-22T00:52:21.354Z,17.90
2023-05-22T00:52:33.622Z,17.90
2023-05-22T00:52:46.300Z,17.90
2023-05-22T00:52:58.872Z,17.90
2023-05-22T00:53:10.793Z,17.88
2023-05-22T00:53:24.401Z,17.86
2023-05-22T00:53:37.105Z,17.85
2023-05-22T00:53:48.936Z,17.86
2023-05-22T00:54:00.750Z,17.86
2023-05-22T00:54:12.775Z,17.87
2023-05-22T00:54:25.497Z,17.84
2023-05-22T00:54:37.164Z,17.86
2023-05-22T00:54:50.633Z,17.86
2023-05-22T00:55:03.811Z,17.86
2023-05-22T00:55:16.743Z,17.86
2023-05-22T00:55:28.363Z,17.87
2023-05-22T00:55:40.232Z,17.85
2023-05-22T00:55:53.227Z,17.84
2023-05-22T00:56:07.005Z,17.85
2023-05-22T00:56:18.765Z,17.86
2023-05-22T00:56:30.392Z,17.86
2023-05-22T00:56:42.262Z,17.85
2023-05-22T00:56:54.122Z,17.86
2023-05-22T00:57:06.109Z,17.85
2023-05-22T00:57:18.019Z,17.86
2023-05-22T00:57:30.590Z,17.86
2023-05-22T00:57:43.777Z,17.86
2023-05-22T00:57:55.849Z,17.87
2023-05-22T00:58:09.285Z,17.87
2023-05-22T00:58:21.726Z,17.86
2023-05-22T00:58:33.528Z,17.86
2023-05-22T00:58:45.425Z,17.86
2023-05-22T00:58:57.172Z,17.86
2023-05-22T00:59:08.871Z,17.84
2023-05-22T00:59:21.730Z,17.83
2023-05-22T00:59:33.448Z,17.81
2023-05-22T00:59:45.232Z,17.80
2023-05-22T00:59:57.079Z,17.79
2023-05-22T01:00:11.171Z,17.80
2023-05-22T01:00:24.679Z,17.78
2023-05-22T01:00:36.977Z,17.78
2023-05-22T01:00:48.750Z,17.77
2023-05-22T01:01:02.172Z,17.75
2023-05-22T01:01:13.945Z,17.75
2023-05-22T01:01:26.563Z,17.76
2023-05-22T01:01:42.167Z,17.76
2023-05-22T01:01:54.400Z,17.77
2023-05-22T01:02:06.350Z,17.76
2023-05-22T01:02:18.170Z,17.76
2023-05-22T01:02:32.980Z,17.77
2023-05-22T01:02:44.963Z,17.77
2023-05-22T01:02:56.837Z,17.77
2023-05-22T01:03:09.764Z,17.77
2023-05-22T01:03:26.715Z,17.76
2023-05-22T01:03:44.751Z,17.77
2023-05-22T01:03:56.886Z,17.76
2023-05-22T01:04:10.930Z,17.76
2023-05-22T01:04:23.364Z,17.76
2023-05-22T01:04:35.231Z,17.77
2023-05-22T01:04:48.501Z,17.74
2023-05-22T01:05:00.168Z,17.75
2023-05-22T01:05:13.163Z,17.75
2023-05-22T01:05:26.730Z,17.76
2023-05-22T01:05:39.427Z,17.77
2023-05-22T01:05:51.121Z,17.76
2023-05-22T01:06:03.261Z,17.76
2023-05-22T01:06:15.833Z,17.75
2023-05-22T01:06:27.631Z,17.75
2023-05-22T01:06:41.256Z,17.75
2023-05-22T01:06:53.629Z,17.76
2023-05-22T01:07:06.087Z,17.75
2023-05-22T01:07:18.797Z,17.75
2023-05-22T01:07:30.807Z,17.75
2023-05-22T01:07:42.461Z,17.75
2023-05-22T01:07:54.090Z,17.75
2023-05-22T01:08:07.214Z,17.74
2023-05-22T01:08:19.296Z,17.73
2023-05-22T01:08:30.937Z,17.73
2023-05-22T01:08:43.860Z,17.73
2023-05-22T01:08:55.585Z,17.73
2023-05-22T01:09:08.030Z,17.73
2023-05-22T01:09:19.744Z,17.72
2023-05-22T01:09:31.724Z,17.72
2023-05-22T01:09:43.640Z,17.72
2023-05-22T01:09:56.144Z,17.72
2023-05-22T01:10:09.951Z,17.70
2023-05-22T01:10:21.764Z,17.70
2023-05-22T01:10:34.502Z,17.69
2023-05-22T01:10:46.373Z,17.68
2023-05-22T01:11:02.312Z,17.68
2023-05-22T01:11:16.200Z,17.67
2023-05-22T01:11:35.093Z,17.66
2023-05-22T01:11:52.753Z,17.67
2023-05-22T01:12:11.290Z,17.66
2023-05-22T01:12:27.785Z,17.68
2023-05-22T01:12:48.092Z,17.68
2023-05-22T01:13:04.967Z,17.69
2023-05-22T01:13:23.589Z,17.67
2023-05-22T01:13:43.602Z,17.67
2023-05-22T01:13:57.841Z,17.67
2023-05-22T01:14:15.132Z,17.67
2023-05-22T01:14:33.194Z,17.67
2023-05-22T01:14:50.308Z,17.64
2023-05-22T01:15:10.655Z,17.64
2023-05-22T01:15:28.597Z,17.64
2023-05-22T01:15:44.709Z,17.64
2023-05-22T01:16:03.173Z,17.62
2023-05-22T01:16:21.269Z,17.63
2023-05-22T01:16:50.316Z,17.63
2023-05-22T01:17:08.996Z,17.62
2023-05-22T01:17:28.712Z,17.61
2023-05-22T01:17:46.310Z,17.61
2023-05-22T01:18:05.364Z,17.62
2023-05-22T01:18:20.994Z,17.62
2023-05-22T01:18:40.635Z,17.63
2023-05-22T01:19:01.287Z,17.61
2023-05-22T01:19:23.967Z,17.62
2023-05-22T01:19:54.121Z,17.61
2023-05-22T01:20:14.224Z,17.59
2023-05-22T01:20:30.791Z,17.59
2023-05-22T01:20:48.825Z,17.58
2023-05-22T01:21:06.075Z,17.57
2023-05-22T01:21:22.136Z,17.57
2023-05-22T01:21:40.364Z,17.59
2023-05-22T01:21:59.147Z,17.58
2023-05-22T01:22:21.929Z,17.58
2023-05-22T01:22:51.097Z,17.59
2023-05-22T01:23:35.913Z,17.56
2023-05-22T01:24:11.660Z,17.58
2023-05-22T01:24:53.172Z,17.57
2023-05-22T01:25:30.133Z,17.56
2023-05-22T01:26:20.714Z,17.56
2023-05-22T01:26:58.114Z,17.57
2023-05-22T01:27:35.225Z,17.57
2023-05-22T01:28:01.108Z,17.55
2023-05-22T01:28:29.989Z,17.55
2023-05-22T01:29:02.932Z,17.55
2023-05-22T01:29:39.926Z,17.56
2023-05-22T01:30:05.151Z,17.55
2023-05-22T01:30:42.204Z,17.53
2023-05-22T01:31:00.501Z,17.54
2023-05-22T01:31:14.268Z,17.52
2023-05-22T01:31:27.411Z,17.53
2023-05-22T01:31:42.094Z,17.54
2023-05-22T01:31:55.771Z,17.54
2023-05-22T01:32:09.355Z,17.52
2023-05-22T01:32:21.867Z,17.51
2023-05-22T01:32:35.074Z,17.49
2023-05-22T01:32:47.818Z,17.50
2023-05-22T01:32:59.901Z,17.49
2023-05-22T01:33:16.314Z,17.48
2023-05-22T01:33:32.245Z,17.49
2023-05-22T01:33:47.152Z,17.49
2023-05-22T01:34:01.335Z,17.48
2023-05-22T01:34:13.913Z,17.48
2023-05-22T01:34:26.972Z,17.47
2023-05-22T01:34:41.409Z,17.49
2023-05-22T01:34:54.728Z,17.48
2023-05-22T01:35:08.443Z,17.48
2023-05-22T01:35:21.446Z,17.48
2023-05-22T01:35:33.806Z,17.48
2023-05-22T01:35:51.674Z,17.47
2023-05-22T01:36:05.166Z,17.47
2023-05-22T01:36:20.238Z,17.47
2023-05-22T01:36:34.931Z,17.46
2023-05-22T01:36:47.164Z,17.46
2023-05-22T01:36:59.276Z,17.47
2023-05-22T01:37:11.309Z,17.46
2023-05-22T01:37:23.692Z,17.47
2023-05-22T01:37:36.431Z,17.48
2023-05-22T01:37:49.438Z,17.47
2023-05-22T01:38:02.613Z,17.46
2023-05-22T01:38:14.961Z,17.45
2023-05-22T01:38:26.838Z,17.45
2023-05-22T01:38:39.191Z,17.45
2023-05-22T01:38:51.256Z,17.45
2023-05-22T01:39:06.133Z,17.44
2023-05-22T01:39:19.868Z,17.44
2023-05-22T01:39:31.783Z,17.42
2023-05-22T01:39:44.069Z,17.42
2023-05-22T01:39:56.101Z,17.42
2023-05-22T01:40:08.762Z,17.42
2023-05-22T01:40:20.850Z,17.41
2023-05-22T01:40:33.765Z,17.42
2023-05-22T01:40:46.442Z,17.44
2023-05-22T01:40:58.426Z,17.46
2023-05-22T01:41:10.085Z,17.47
2023-05-22T01:41:22.362Z,17.47
2023-05-22T01:41:34.582Z,17.47
2023-05-22T01:41:46.373Z,17.47
2023-05-22T01:41:59.376Z,17.47
2023-05-22T01:42:11.124Z,17.47
2023-05-22T01:42:23.186Z,17.47
2023-05-22T01:42:34.949Z,17.48
2023-05-22T01:42:46.601Z,17.50
2023-05-22T01:42:58.617Z,17.49
2023-05-22T01:43:10.571Z,17.50
2023-05-22T01:43:22.303Z,17.50
2023-05-22T01:43:35.050Z,17.50
2023-05-22T01:43:47.012Z,17.51
2023-05-22T01:43:59.381Z,17.52
2023-05-22T01:44:10.996Z,17.53
2023-05-22T01:44:23.564Z,17.53
2023-05-22T01:44:35.256Z,17.52
2023-05-22T01:44:48.566Z,17.51
2023-05-22T01:45:01.186Z,17.50
2023-05-22T01:45:14.691Z,17.49
2023-05-22T01:45:26.358Z,17.48
2023-05-22T01:45:38.309Z,17.47
2023-05-22T01:45:51.690Z,17.46
2023-05-22T01:46:03.920Z,17.46
2023-05-22T01:46:16.774Z,17.46
2023-05-22T01:46:29.159Z,17.47
2023-05-22T01:46:41.180Z,17.47
2023-05-22T01:46:52.809Z,17.46
2023-05-22T01:47:05.769Z,17.46
2023-05-22T01:47:18.068Z,17.45
2023-05-22T01:47:29.739Z,17.45
2023-05-22T01:47:42.415Z,17.44
2023-05-22T01:47:54.135Z,17.42
2023-05-22T01:48:06.337Z,17.42
2023-05-22T01:48:18.007Z,17.43
2023-05-22T01:48:29.722Z,17.43
2023-05-22T01:48:41.401Z,17.44
2023-05-22T01:48:53.124Z,17.43
2023-05-22T01:49:04.799Z,17.42
2023-05-22T01:49:17.583Z,17.42
2023-05-22T01:49:29.226Z,17.43
2023-05-22T01:49:41.236Z,17.43
2023-05-22T01:49:53.287Z,17.41
2023-05-22T01:50:06.113Z,17.41
2023-05-22T01:50:18.039Z,17.41
2023-05-22T01:50:29.840Z,17.39
2023-05-22T01:50:42.739Z,17.42
2023-05-22T01:50:55.042Z,17.40
2023-05-22T01:51:12.248Z,17.40
2023-05-22T01:51:28.691Z,17.40
2023-05-22T01:51:48.601Z,17.40
2023-05-22T01:52:06.078Z,17.39
2023-05-22T01:52:22.641Z,17.38
2023-05-22T01:52:39.328Z,17.38
2023-05-22T01:52:56.451Z,17.38
2023-05-22T01:53:12.643Z,17.38
2023-05-22T01:53:28.896Z,17.36
2023-05-22T01:53:46.071Z,17.37
2023-05-22T01:54:06.117Z,17.38
2023-05-22T01:54:25.085Z,17.38
2023-05-22T01:54:39.758Z,17.37
2023-05-22T01:54:54.667Z,17.37
2023-05-22T01:55:13.809Z,17.37
2023-05-22T01:55:35.168Z,17.37
2023-05-22T01:55:55.813Z,17.36
2023-05-22T01:56:11.270Z,17.36
2023-05-22T01:56:30.688Z,17.36
2023-05-22T01:56:48.881Z,17.36
2023-05-22T01:57:05.807Z,17.36
2023-05-22T01:57:22.168Z,17.35
2023-05-22T01:57:41.344Z,17.35
2023-05-22T01:57:56.930Z,17.35
2023-05-22T01:58:17.086Z,17.35
2023-05-22T01:58:34.453Z,17.32
2023-05-22T01:58:50.658Z,17.32
2023-05-22T01:59:09.882Z,17.32
2023-05-22T01:59:25.771Z,17.32
2023-05-22T01:59:43.507Z,17.32
2023-05-22T01:59:59.967Z,17.33
2023-05-22T02:00:14.193Z,17.33
2023-05-22T02:00:26.481Z,17.33
2023-05-22T02:00:41.491Z,17.36
2023-05-22T02:00:56.484Z,17.36
2023-05-22T02:01:09.392Z,17.38
2023-05-22T02:01:23.539Z,17.38
2023-05-22T02:01:37.154Z,17.40
2023-05-22T02:01:51.047Z,17.40
2023-05-22T02:02:05.680Z,17.41
2023-05-22T02:02:19.723Z,17.41
2023-05-22T02:02:32.357Z,17.42
2023-05-22T02:02:48.472Z,17.41
2023-05-22T02:03:06.084Z,17.40
2023-05-22T02:03:20.661Z,17.40
2023-05-22T02:03:35.296Z,17.37
2023-05-22T02:03:49.812Z,17.37
2023-05-22T02:04:02.604Z,17.38
2023-05-22T02:04:14.921Z,17.40
2023-05-22T02:04:29.718Z,17.40
2023-05-22T02:04:44.545Z,17.40
2023-05-22T02:04:59.396Z,17.40
2023-05-22T02:05:12.034Z,17.39
2023-05-22T02:05:25.226Z,17.37
2023-05-22T02:05:39.013Z,17.36
2023-05-22T02:05:55.534Z,17.34
2023-05-22T02:06:09.149Z,17.33
2023-05-22T02:06:20.878Z,17.33
2023-05-22T02:06:33.364Z,17.34
2023-05-22T02:06:46.124Z,17.34
2023-05-22T02:06:58.087Z,17.33
2023-05-22T02:07:12.491Z,17.33
2023-05-22T02:07:25.942Z,17.32
2023-05-22T02:07:38.686Z,17.32
2023-05-22T02:07:50.672Z,17.31
2023-05-22T02:08:02.469Z,17.32
2023-05-22T02:08:14.877Z,17.32
2023-05-22T02:08:26.686Z,17.31
2023-05-22T02:08:40.170Z,17.31
2023-05-22T02:08:53.894Z,17.30
2023-05-22T02:09:06.353Z,17.30
2023-05-22T02:09:18.531Z,17.30
2023-05-22T02:09:31.078Z,17.30
2023-05-22T02:09:43.322Z,17.31
2023-05-22T02:09:56.094Z,17.32
2023-05-22T02:10:10.128Z,17.31
2023-05-22T02:10:23.227Z,17.32
2023-05-22T02:10:35.569Z,17.31
2023-05-22T02:10:48.958Z,17.32
2023-05-22T02:11:01.035Z,17.31
2023-05-22T02:11:13.845Z,17.30
2023-05-22T02:11:26.844Z,17.30
2023-05-22T02:11:40.473Z,17.30
2023-05-22T02:11:52.165Z,17.30
2023-05-22T02:12:05.387Z,17.29
2023-05-22T02:12:17.098Z,17.28
2023-05-22T02:12:29.025Z,17.27
2023-05-22T02:12:41.290Z,17.27
2023-05-22T02:12:53.494Z,17.25
2023-05-22T02:13:05.690Z,17.25
2023-05-22T02:13:18.502Z,17.24
2023-05-22T02:13:30.438Z,17.24
2023-05-22T02:13:42.038Z,17.23
2023-05-22T02:13:53.709Z,17.22
2023-05-22T02:14:05.998Z,17.23
2023-05-22T02:14:18.403Z,17.23
2023-05-22T02:14:30.193Z,17.23
2023-05-22T02:14:44.093Z,17.22
2023-05-22T02:14:55.752Z,17.22
2023-05-22T02:15:08.619Z,17.21
2023-05-22T02:15:20.942Z,17.21
2023-05-22T02:15:33.496Z,17.19
2023-05-22T02:15:48.845Z,17.18
2023-05-22T02:16:03.821Z,17.18
2023-05-22T02:16:15.810Z,17.18
2023-05-22T02:16:30.259Z,17.18
2023-05-22T02:16:42.386Z,17.16
2023-05-22T02:16:54.126Z,17.17
2023-05-22T02:17:05.945Z,17.17
2023-05-22T02:17:18.171Z,17.18
2023-05-22T02:17:29.935Z,17.17
2023-05-22T02:17:41.658Z,17.16
2023-05-22T02:17:54.477Z,17.16
2023-05-22T02:18:10.921Z,17.16
2023-05-22T02:18:29.448Z,17.19
2023-05-22T02:18:41.892Z,17.21
2023-05-22T02:19:03.098Z,17.22
2023-05-22T02:19:15.897Z,17.22
2023-05-22T02:19:27.614Z,17.22
2023-05-22T02:19:39.378Z,17.21
2023-05-22T02:19:51.079Z,17.21
2023-05-22T02:20:02.955Z,17.21
2023-05-22T02:20:15.823Z,17.17
2023-05-22T02:20:28.464Z,17.16
2023-05-22T02:20:40.492Z,17.14
2023-05-22T02:20:52.292Z,17.14
2023-05-22T02:21:08.413Z,17.14
2023-05-22T02:21:20.308Z,17.13
2023-05-22T02:21:33.257Z,17.13
2023-05-22T02:21:47.795Z,17.12
2023-05-22T02:22:00.728Z,17.11
2023-05-22T02:22:13.783Z,17.12
2023-05-22T02:22:26.706Z,17.12
2023-05-22T02:22:38.328Z,17.12
2023-05-22T02:22:50.037Z,17.12
2023-05-22T02:23:01.681Z,17.12
2023-05-22T02:23:13.477Z,17.13
2023-05-22T02:23:26.442Z,17.13
2023-05-22T02:23:38.148Z,17.12
2023-05-22T02:23:49.844Z,17.13
2023-05-22T02:24:01.987Z,17.13
2023-05-22T02:24:13.637Z,17.12
2023-05-22T02:24:25.497Z,17.13
2023-05-22T02:24:37.221Z,17.12
2023-05-22T02:24:50.504Z,17.12
2023-05-22T02:25:02.139Z,17.12
2023-05-22T02:25:14.772Z,17.12
2023-05-22T02:25:26.967Z,17.11
2023-05-22T02:25:38.610Z,17.11
2023-05-22T02:25:50.473Z,17.09
2023-05-22T02:26:02.158Z,17.10
2023-05-22T02:26:14.724Z,17.09
2023-05-22T02:26:26.403Z,17.09
2023-05-22T02:26:38.214Z,17.09
2023-05-22T02:26:49.827Z,17.09
2023-05-22T02:27:01.659Z,17.08
2023-05-22T02:27:13.692Z,17.07
2023-05-22T02:27:25.452Z,17.08
2023-05-22T02:27:38.353Z,17.06
2023-05-22T02:27:50.078Z,17.07
2023-05-22T02:28:01.717Z,17.06
2023-05-22T02:28:13.318Z,17.07
2023-05-22T02:28:24.933Z,17.07
2023-05-22T02:28:36.623Z,17.07
2023-05-22T02:28:49.243Z,17.06
2023-05-22T02:29:00.924Z,17.06
2023-05-22T02:29:13.483Z,17.05
2023-05-22T02:29:25.141Z,17.05
2023-05-22T02:29:36.789Z,17.06
2023-05-22T02:29:48.547Z,17.05
2023-05-22T02:30:00.627Z,17.05
2023-05-22T02:30:14.312Z,17.05
2023-05-22T02:30:25.975Z,17.06
2023-05-22T02:30:37.900Z,17.06
2023-05-22T02:30:49.759Z,17.05
2023-05-22T02:31:03.799Z,17.05
2023-05-22T02:31:16.302Z,17.05
2023-05-22T02:31:28.021Z,17.06
2023-05-22T02:31:40.934Z,17.04
2023-05-22T02:31:53.779Z,17.04
2023-05-22T02:32:06.154Z,17.04
2023-05-22T02:32:17.838Z,17.04
2023-05-22T02:32:29.532Z,17.04
2023-05-22T02:32:41.711Z,17.04
2023-05-22T02:32:54.424Z,17.04
2023-05-22T02:33:06.312Z,17.05
2023-05-22T02:33:18.616Z,17.04
2023-05-22T02:33:30.909Z,17.05
2023-05-22T02:33:42.529Z,17.05
2023-05-22T02:33:54.136Z,17.06
2023-05-22T02:34:06.563Z,17.06
2023-05-22T02:34:18.393Z,17.06
2023-05-22T02:34:31.900Z,17.05
2023-05-22T02:34:44.070Z,17.05
2023-05-22T02:34:55.768Z,17.05
2023-05-22T02:35:08.442Z,17.04
2023-05-22T02:35:20.300Z,17.02
2023-05-22T02:35:32.212Z,17.04
2023-05-22T02:35:43.928Z,17.05
2023-05-22T02:35:56.570Z,17.06
2023-05-22T02:36:11.047Z,17.07
2023-05-22T02:36:23.040Z,17.05
2023-05-22T02:36:34.740Z,17.05
2023-05-22T02:36:47.801Z,17.06
2023-05-22T02:36:59.801Z,17.05
2023-05-22T02:37:13.218Z,17.05
2023-05-22T02:37:24.845Z,17.04
2023-05-22T02:37:36.941Z,17.04
2023-05-22T02:37:48.665Z,17.03
2023-05-22T02:38:00.458Z,17.01
2023-05-22T02:38:12.174Z,17.01
2023-05-22T02:38:24.895Z,17.01
2023-05-22T02:38:36.815Z,17.01
2023-05-22T02:38:48.601Z,17.01
2023-05-22T02:39:00.402Z,17.01
2023-05-22T02:39:12.067Z,17.01
2023-05-22T02:39:23.753Z,17.02
2023-05-22T02:39:35.394Z,17.01
2023-05-22T02:39:48.015Z,17.01
2023-05-22T02:39:59.926Z,17.01
2023-05-22T02:40:12.269Z,17.02
2023-05-22T02:40:23.937Z,17.00
2023-05-22T02:40:35.628Z,16.99
2023-05-22T02:40:47.320Z,16.98
2023-05-22T02:40:58.930Z,16.99
2023-05-22T02:41:10.636Z,16.99
2023-05-22T02:41:22.690Z,16.98
2023-05-22T02:41:35.285Z,16.98
2023-05-22T02:41:47.003Z,16.98
2023-05-22T02:41:58.701Z,16.98
2023-05-22T02:42:10.320Z,16.97
2023-05-22T02:42:22.030Z,16.96
2023-05-22T02:42:33.779Z,16.96
2023-05-22T02:42:45.490Z,16.97
2023-05-22T02:42:57.165Z,16.96
2023-05-22T02:43:09.800Z,16.97
2023-05-22T02:43:21.477Z,16.96
2023-05-22T02:43:33.136Z,16.96
2023-05-22T02:43:44.992Z,16.98
2023-05-22T02:43:56.646Z,16.97
2023-05-22T02:44:08.241Z,16.98
2023-05-22T02:44:21.063Z,16.97
2023-05-22T02:44:32.738Z,16.97
2023-05-22T02:44:44.409Z,16.96
2023-05-22T02:44:56.104Z,16.98
2023-05-22T02:45:09.103Z,16.98
2023-05-22T02:45:20.839Z,16.99
2023-05-22T02:45:32.749Z,17.00
2023-05-22T02:45:47.539Z,16.99
2023-05-22T02:45:59.231Z,16.98
2023-05-22T02:46:12.262Z,17.01
2023-05-22T02:46:23.942Z,17.00
2023-05-22T02:46:35.633Z,16.99
2023-05-22T02:46:47.409Z,17.00
2023-05-22T02:46:59.213Z,17.01
2023-05-22T02:47:10.992Z,17.02
2023-05-22T02:47:23.574Z,17.02
2023-05-22T02:47:35.347Z,17.02
2023-05-22T02:47:47.152Z,17.01
2023-05-22T02:48:01.467Z,17.00
2023-05-22T02:48:13.255Z,17.00
2023-05-22T02:48:25.120Z,16.98
2023-05-22T02:48:37.811Z,16.99
2023-05-22T02:48:49.489Z,16.99
2023-05-22T02:49:01.120Z,17.00
2023-05-22T02:49:12.796Z,17.00
2023-05-22T02:49:24.480Z,16.99
2023-05-22T02:49:36.112Z,16.98
2023-05-22T02:49:47.862Z,16.98
2023-05-22T02:49:59.908Z,16.99
2023-05-22T02:50:11.702Z,16.99
2023-05-22T02:50:24.386Z,16.98
2023-05-22T02:50:36.039Z,16.99
2023-05-22T02:50:48.721Z,16.99
2023-05-22T02:51:00.370Z,16.97
2023-05-22T02:51:12.096Z,16.97
2023-05-22T02:51:23.863Z,16.96
2023-05-22T02:51:35.753Z,16.96
2023-05-22T02:51:48.512Z,16.96
2023-05-22T02:52:00.238Z,16.96
2023-05-22T02:52:11.896Z,16.96
2023-05-22T02:52:24.748Z,16.96
2023-05-22T02:52:37.099Z,16.96
2023-05-22T02:52:49.490Z,16.97